sensor_id;sensor_type;location;lat;lon;timestamp;temperature;humidity
6841;DHT22;3458;53.678;14.080;2023-04-24T00:00:33;12.00;99.90
6841;DHT22;3458;53.678;14.080;2023-04-24T00:02:59;11.90;99.90
6841;DHT22;3458;53.678;14.080;2023-04-24T00:05:24;11.90;99.90
6841;DHT22;3458;53.678;14.080;2023-04-24T00:07:50;11.90;99.90
6841;DHT22;3458;53.678;14.080;2023-04-24T00:10:19;11.90;99.90
6841;DHT22;3458;53.678;14.080;2023-04-24T00:12:45;11.90;99.90
6841;DHT22;3458;53.678;14.080;2023-04-24T00:15:10;11.90;99.90
6841;DHT22;3458;53.678;14.080;2023-04-24T00:17:36;11.80;99.90
6841;DHT22;3458;53.678;14.080;2023-04-24T00:20:02;11.80;99.90
6841;DHT22;3458;53.678;14.080;2023-04-24T00:22:30;11.70;99.90
6841;DHT22;3458;53.678;14.080;2023-04-24T00:24:56;11.70;99.90
6841;DHT22;3458;53.678;14.080;2023-04-24T00:27:22;11.70;99.90
6841;DHT22;3458;53.678;14.080;2023-04-24T00:29:48;11.70;99.90
6841;DHT22;3458;53.678;14.080;2023-04-24T00:32:14;11.60;99.90
6841;DHT22;3458;53.678;14.080;2023-04-24T00:34:40;11.60;99.90
6841;DHT22;3458;53.678;14.080;2023-04-24T00:37:06;11.60;99.90
6841;DHT22;3458;53.678;14.080;2023-04-24T00:39:31;11.60;99.90
6841;DHT22;3458;53.678;14.080;2023-04-24T00:41:57;11.60;99.90
6841;DHT22;3458;53.678;14.080;2023-04-24T00:44:23;11.60;99.90
6841;DHT22;3458;53.678;14.080;2023-04-24T00:46:49;11.50;99.90
6841;DHT22;3458;53.678;14.080;2023-04-24T00:49:20;11.50;99.90
6841;DHT22;3458;53.678;14.080;2023-04-24T00:51:46;11.50;99.90
6841;DHT22;3458;53.678;14.080;2023-04-24T00:54:15;11.40;99.90
6841;DHT22;3458;53.678;14.080;2023-04-24T00:56:41;11.40;99.90
6841;DHT22;3458;53.678;14.080;2023-04-24T00:59:08;11.40;99.90
6841;DHT22;3458;53.678;14.080;2023-04-24T01:01:33;11.40;99.90
6841;DHT22;3458;53.678;14.080;2023-04-24T01:03:59;11.40;99.90
6841;DHT22;3458;53.678;14.080;2023-04-24T01:06:28;11.30;99.90
6841;DHT22;3458;53.678;14.080;2023-04-24T01:08:54;11.40;99.90
6841;DHT22;3458;53.678;14.080;2023-04-24T01:11:21;11.30;99.90
6841;DHT22;3458;53.678;14.080;2023-04-24T01:13:47;11.30;99.90
6841;DHT22;3458;53.678;14.080;2023-04-24T01:16:14;11.30;99.90
6841;DHT22;3458;53.678;14.080;2023-04-24T01:18:40;11.10;99.90
6841;DHT22;3458;53.678;14.080;2023-04-24T01:21:08;11.00;99.90
6841;DHT22;3458;53.678;14.080;2023-04-24T01:23:34;11.00;99.90
6841;DHT22;3458;53.678;14.080;2023-04-24T01:26:00;11.00;99.90
6841;DHT22;3458;53.678;14.080;2023-04-24T01:28:26;11.00;99.90
6841;DHT22;3458;53.678;14.080;2023-04-24T01:30:52;11.10;99.90
6841;DHT22;3458;53.678;14.080;2023-04-24T01:33:19;11.10;99.90
6841;DHT22;3458;53.678;14.080;2023-04-24T01:35:45;11.10;99.90
6841;DHT22;3458;53.678;14.080;2023-04-24T01:38:11;11.20;99.90
6841;DHT22;3458;53.678;14.080;2023-04-24T01:40:37;11.10;99.90
6841;DHT22;3458;53.678;14.080;2023-04-24T01:43:02;11.10;99.90
6841;DHT22;3458;53.678;14.080;2023-04-24T01:45:28;11.10;99.90
6841;DHT22;3458;53.678;14.080;2023-04-24T01:47:53;11.10;99.90
6841;DHT22;3458;53.678;14.080;2023-04-24T01:50:19;11.20;99.90
6841;DHT22;3458;53.678;14.080;2023-04-24T01:52:44;11.10;99.90
6841;DHT22;3458;53.678;14.080;2023-04-24T01:55:10;11.10;99.90
6841;DHT22;3458;53.678;14.080;2023-04-24T01:57:36;11.10;99.90
6841;DHT22;3458;53.678;14.080;2023-04-24T02:00:03;11.20;99.90
6841;DHT22;3458;53.678;14.080;2023-04-24T02:02:30;11.20;99.90
6841;DHT22;3458;53.678;14.080;2023-04-24T02:04:56;11.20;99.90
6841;DHT22;3458;53.678;14.080;2023-04-24T02:07:22;11.20;99.90
6841;DHT22;3458;53.678;14.080;2023-04-24T02:09:48;11.30;99.90
6841;DHT22;3458;53.678;14.080;2023-04-24T02:12:14;11.30;99.90
6841;DHT22;3458;53.678;14.080;2023-04-24T02:14:40;11.30;99.90
6841;DHT22;3458;53.678;14.080;2023-04-24T02:17:05;11.30;99.90
6841;DHT22;3458;53.678;14.080;2023-04-24T02:19:31;11.20;99.90
6841;DHT22;3458;53.678;14.080;2023-04-24T02:21:57;11.20;99.90
6841;DHT22;3458;53.678;14.080;2023-04-24T02:24:22;11.20;99.90
6841;DHT22;3458;53.678;14.080;2023-04-24T02:26:48;11.20;99.90
6841;DHT22;3458;53.678;14.080;2023-04-24T02:29:13;11.20;99.90
6841;DHT22;3458;53.678;14.080;2023-04-24T02:31:39;11.20;99.90
6841;DHT22;3458;53.678;14.080;2023-04-24T02:34:04;11.10;99.90
6841;DHT22;3458;53.678;14.080;2023-04-24T02:36:30;11.10;99.90
6841;DHT22;3458;53.678;14.080;2023-04-24T02:38:56;11.10;99.90
6841;DHT22;3458;53.678;14.080;2023-04-24T02:41:22;11.10;99.90
6841;DHT22;3458;53.678;14.080;2023-04-24T02:43:47;11.10;99.90
6841;DHT22;3458;53.678;14.080;2023-04-24T02:46:13;11.10;99.90
6841;DHT22;3458;53.678;14.080;2023-04-24T02:48:38;11.10;99.90
6841;DHT22;3458;53.678;14.080;2023-04-24T02:51:04;11.20;99.90
6841;DHT22;3458;53.678;14.080;2023-04-24T02:53:30;11.10;99.90
6841;DHT22;3458;53.678;14.080;2023-04-24T02:55:56;11.10;99.90
6841;DHT22;3458;53.678;14.080;2023-04-24T02:58:22;11.10;99.90
6841;DHT22;3458;53.678;14.080;2023-04-24T03:00:47;11.00;99.90
6841;DHT22;3458;53.678;14.080;2023-04-24T03:03:13;11.00;99.90
6841;DHT22;3458;53.678;14.080;2023-04-24T03:05:39;11.00;99.90
6841;DHT22;3458;53.678;14.080;2023-04-24T03:08:04;11.00;99.90
6841;DHT22;3458;53.678;14.080;2023-04-24T03:10:31;11.00;99.90
6841;DHT22;3458;53.678;14.080;2023-04-24T03:12:57;11.00;99.90
6841;DHT22;3458;53.678;14.080;2023-04-24T03:15:22;11.00;99.90
6841;DHT22;3458;53.678;14.080;2023-04-24T03:17:48;11.00;99.90
6841;DHT22;3458;53.678;14.080;2023-04-24T03:20:13;11.00;99.90
6841;DHT22;3458;53.678;14.080;2023-04-24T03:22:39;10.90;99.90
6841;DHT22;3458;53.678;14.080;2023-04-24T03:25:05;10.90;99.90
6841;DHT22;3458;53.678;14.080;2023-04-24T03:27:31;10.90;99.90
6841;DHT22;3458;53.678;14.080;2023-04-24T03:29:56;10.90;99.90
6841;DHT22;3458;53.678;14.080;2023-04-24T03:32:22;10.90;99.90
6841;DHT22;3458;53.678;14.080;2023-04-24T03:34:49;10.90;99.90
6841;DHT22;3458;53.678;14.080;2023-04-24T03:37:15;10.90;99.90
6841;DHT22;3458;53.678;14.080;2023-04-24T03:39:41;10.90;99.90
6841;DHT22;3458;53.678;14.080;2023-04-24T03:42:06;10.90;99.90
6841;DHT22;3458;53.678;14.080;2023-04-24T03:44:34;10.90;99.90
6841;DHT22;3458;53.678;14.080;2023-04-24T03:46:59;11.00;99.90
6841;DHT22;3458;53.678;14.080;2023-04-24T03:49:25;10.90;99.90
6841;DHT22;3458;53.678;14.080;2023-04-24T03:51:51;10.90;99.90
6841;DHT22;3458;53.678;14.080;2023-04-24T03:54:17;10.90;99.90
6841;DHT22;3458;53.678;14.080;2023-04-24T03:56:43;10.90;99.90
6841;DHT22;3458;53.678;14.080;2023-04-24T03:59:08;10.90;99.90
6841;DHT22;3458;53.678;14.080;2023-04-24T04:01:34;10.90;99.90
6841;DHT22;3458;53.678;14.080;2023-04-24T04:04:03;10.90;99.90
6841;DHT22;3458;53.678;14.080;2023-04-24T04:06:28;10.90;99.90
6841;DHT22;3458;53.678;14.080;2023-04-24T04:08:54;10.90;99.90
6841;DHT22;3458;53.678;14.080;2023-04-24T04:11:19;10.90;99.90
6841;DHT22;3458;53.678;14.080;2023-04-24T04:13:45;11.00;99.90
6841;DHT22;3458;53.678;14.080;2023-04-24T04:16:13;11.00;99.90
6841;DHT22;3458;53.678;14.080;2023-04-24T04:18:38;11.10;99.90
6841;DHT22;3458;53.678;14.080;2023-04-24T04:21:04;11.20;99.90
6841;DHT22;3458;53.678;14.080;2023-04-24T04:23:30;11.30;99.90
6841;DHT22;3458;53.678;14.080;2023-04-24T04:25:55;11.40;99.90
6841;DHT22;3458;53.678;14.080;2023-04-24T04:28:21;11.40;99.90
6841;DHT22;3458;53.678;14.080;2023-04-24T04:30:46;11.50;99.90
6841;DHT22;3458;53.678;14.080;2023-04-24T04:33:12;11.60;99.90
6841;DHT22;3458;53.678;14.080;2023-04-24T04:35:38;11.60;99.90
6841;DHT22;3458;53.678;14.080;2023-04-24T04:38:03;11.70;99.90
6841;DHT22;3458;53.678;14.080;2023-04-24T04:40:30;11.70;99.90
6841;DHT22;3458;53.678;14.080;2023-04-24T04:42:55;11.80;99.90
6841;DHT22;3458;53.678;14.080;2023-04-24T04:45:21;11.80;99.90
6841;DHT22;3458;53.678;14.080;2023-04-24T04:47:47;11.90;99.90
6841;DHT22;3458;53.678;14.080;2023-04-24T04:50:13;11.90;99.90
6841;DHT22;3458;53.678;14.080;2023-04-24T04:52:38;12.00;99.90
6841;DHT22;3458;53.678;14.080;2023-04-24T04:55:04;12.00;99.90
6841;DHT22;3458;53.678;14.080;2023-04-24T04:57:30;12.00;99.90
6841;DHT22;3458;53.678;14.080;2023-04-24T04:59:56;12.00;99.90
6841;DHT22;3458;53.678;14.080;2023-04-24T05:02:22;12.00;99.90
6841;DHT22;3458;53.678;14.080;2023-04-24T05:04:47;12.10;99.90
6841;DHT22;3458;53.678;14.080;2023-04-24T05:07:13;12.10;99.90
6841;DHT22;3458;53.678;14.080;2023-04-24T05:09:38;12.10;99.90
6841;DHT22;3458;53.678;14.080;2023-04-24T05:12:04;12.10;99.90
6841;DHT22;3458;53.678;14.080;2023-04-24T05:14:29;12.10;99.90
6841;DHT22;3458;53.678;14.080;2023-04-24T05:16:55;12.10;99.90
6841;DHT22;3458;53.678;14.080;2023-04-24T05:19:20;12.10;99.90
6841;DHT22;3458;53.678;14.080;2023-04-24T05:21:46;12.20;99.90
6841;DHT22;3458;53.678;14.080;2023-04-24T05:24:11;12.20;99.90
6841;DHT22;3458;53.678;14.080;2023-04-24T05:26:37;12.20;99.90
6841;DHT22;3458;53.678;14.080;2023-04-24T05:29:03;12.30;99.90
6841;DHT22;3458;53.678;14.080;2023-04-24T05:31:29;12.30;99.90
6841;DHT22;3458;53.678;14.080;2023-04-24T05:33:54;12.30;99.90
6841;DHT22;3458;53.678;14.080;2023-04-24T05:36:20;12.30;99.90
6841;DHT22;3458;53.678;14.080;2023-04-24T05:38:45;12.20;99.90
6841;DHT22;3458;53.678;14.080;2023-04-24T05:41:11;12.20;99.90
6841;DHT22;3458;53.678;14.080;2023-04-24T05:43:36;12.20;99.90
6841;DHT22;3458;53.678;14.080;2023-04-24T05:46:02;12.20;99.90
6841;DHT22;3458;53.678;14.080;2023-04-24T05:48:27;12.10;99.90
6841;DHT22;3458;53.678;14.080;2023-04-24T05:50:53;12.10;99.90
6841;DHT22;3458;53.678;14.080;2023-04-24T05:53:19;12.00;99.90
6841;DHT22;3458;53.678;14.080;2023-04-24T05:55:45;12.00;99.90
6841;DHT22;3458;53.678;14.080;2023-04-24T05:58:11;12.00;99.90
6841;DHT22;3458;53.678;14.080;2023-04-24T06:00:37;12.00;99.90
6841;DHT22;3458;53.678;14.080;2023-04-24T06:03:05;11.90;99.90
6841;DHT22;3458;53.678;14.080;2023-04-24T06:05:31;11.90;99.90
6841;DHT22;3458;53.678;14.080;2023-04-24T06:07:56;12.00;99.90
6841;DHT22;3458;53.678;14.080;2023-04-24T06:10:22;12.00;99.90
6841;DHT22;3458;53.678;14.080;2023-04-24T06:12:47;12.00;99.90
6841;DHT22;3458;53.678;14.080;2023-04-24T06:15:13;12.00;99.90
6841;DHT22;3458;53.678;14.080;2023-04-24T06:17:38;12.10;99.90
6841;DHT22;3458;53.678;14.080;2023-04-24T06:20:05;12.10;99.90
6841;DHT22;3458;53.678;14.080;2023-04-24T06:22:31;12.10;99.90
6841;DHT22;3458;53.678;14.080;2023-04-24T06:24:56;12.10;99.90
6841;DHT22;3458;53.678;14.080;2023-04-24T06:27:22;12.10;99.90
6841;DHT22;3458;53.678;14.080;2023-04-24T06:29:47;12.20;99.90
6841;DHT22;3458;53.678;14.080;2023-04-24T06:32:20;12.30;99.90
6841;DHT22;3458;53.678;14.080;2023-04-24T06:34:46;12.40;99.90
6841;DHT22;3458;53.678;14.080;2023-04-24T06:37:11;12.50;99.90
6841;DHT22;3458;53.678;14.080;2023-04-24T06:39:37;12.50;99.90
6841;DHT22;3458;53.678;14.080;2023-04-24T06:42:02;12.60;99.90
6841;DHT22;3458;53.678;14.080;2023-04-24T06:44:28;12.70;99.90
6841;DHT22;3458;53.678;14.080;2023-04-24T06:46:53;12.70;99.90
6841;DHT22;3458;53.678;14.080;2023-04-24T06:49:19;12.70;99.90
6841;DHT22;3458;53.678;14.080;2023-04-24T06:51:45;12.70;99.90
6841;DHT22;3458;53.678;14.080;2023-04-24T06:54:10;12.70;99.90
6841;DHT22;3458;53.678;14.080;2023-04-24T06:56:36;12.80;99.90
6841;DHT22;3458;53.678;14.080;2023-04-24T06:59:02;12.70;99.90
6841;DHT22;3458;53.678;14.080;2023-04-24T07:01:27;12.80;99.90
6841;DHT22;3458;53.678;14.080;2023-04-24T07:03:53;12.80;99.90
6841;DHT22;3458;53.678;14.080;2023-04-24T07:06:18;12.80;99.90
6841;DHT22;3458;53.678;14.080;2023-04-24T07:08:46;12.90;99.90
6841;DHT22;3458;53.678;14.080;2023-04-24T07:11:12;13.00;99.90
6841;DHT22;3458;53.678;14.080;2023-04-24T07:13:38;13.00;99.90
6841;DHT22;3458;53.678;14.080;2023-04-24T07:16:07;13.00;99.90
6841;DHT22;3458;53.678;14.080;2023-04-24T07:18:33;13.00;99.90
6841;DHT22;3458;53.678;14.080;2023-04-24T07:20:59;13.00;99.90
6841;DHT22;3458;53.678;14.080;2023-04-24T07:23:24;13.00;99.90
6841;DHT22;3458;53.678;14.080;2023-04-24T07:25:50;13.00;99.90
6841;DHT22;3458;53.678;14.080;2023-04-24T07:28:15;13.10;99.90
6841;DHT22;3458;53.678;14.080;2023-04-24T07:30:43;13.10;99.90
6841;DHT22;3458;53.678;14.080;2023-04-24T07:33:08;13.10;99.90
6841;DHT22;3458;53.678;14.080;2023-04-24T07:35:36;13.10;99.90
6841;DHT22;3458;53.678;14.080;2023-04-24T07:38:01;13.10;99.90
6841;DHT22;3458;53.678;14.080;2023-04-24T07:40:27;13.10;99.90
6841;DHT22;3458;53.678;14.080;2023-04-24T07:42:52;13.10;99.90
6841;DHT22;3458;53.678;14.080;2023-04-24T07:45:18;13.20;99.90
6841;DHT22;3458;53.678;14.080;2023-04-24T07:47:44;13.20;99.90
6841;DHT22;3458;53.678;14.080;2023-04-24T07:50:11;13.30;99.90
6841;DHT22;3458;53.678;14.080;2023-04-24T07:52:38;13.50;99.90
6841;DHT22;3458;53.678;14.080;2023-04-24T07:55:03;13.50;99.90
6841;DHT22;3458;53.678;14.080;2023-04-24T07:57:30;13.70;99.90
6841;DHT22;3458;53.678;14.080;2023-04-24T07:59:55;13.70;99.90
6841;DHT22;3458;53.678;14.080;2023-04-24T08:02:21;13.80;99.90
6841;DHT22;3458;53.678;14.080;2023-04-24T08:04:52;13.80;99.90
6841;DHT22;3458;53.678;14.080;2023-04-24T08:07:18;13.80;99.90
6841;DHT22;3458;53.678;14.080;2023-04-24T08:09:43;13.90;99.90
6841;DHT22;3458;53.678;14.080;2023-04-24T08:12:09;14.00;99.90
6841;DHT22;3458;53.678;14.080;2023-04-24T08:14:34;14.10;99.90
6841;DHT22;3458;53.678;14.080;2023-04-24T08:17:00;14.20;99.90
6841;DHT22;3458;53.678;14.080;2023-04-24T08:19:26;14.30;99.90
6841;DHT22;3458;53.678;14.080;2023-04-24T08:21:52;14.40;99.90
6841;DHT22;3458;53.678;14.080;2023-04-24T08:24:17;14.50;99.90
6841;DHT22;3458;53.678;14.080;2023-04-24T08:26:43;14.60;99.90
6841;DHT22;3458;53.678;14.080;2023-04-24T08:29:08;14.70;99.90
6841;DHT22;3458;53.678;14.080;2023-04-24T08:31:34;14.70;99.90
6841;DHT22;3458;53.678;14.080;2023-04-24T08:34:00;14.80;99.90
6841;DHT22;3458;53.678;14.080;2023-04-24T08:36:26;14.80;99.90
6841;DHT22;3458;53.678;14.080;2023-04-24T08:38:52;14.90;99.90
6841;DHT22;3458;53.678;14.080;2023-04-24T08:41:18;14.80;99.90
6841;DHT22;3458;53.678;14.080;2023-04-24T08:43:45;14.80;99.90
6841;DHT22;3458;53.678;14.080;2023-04-24T08:46:13;14.90;99.90
6841;DHT22;3458;53.678;14.080;2023-04-24T08:48:39;15.00;99.90
6841;DHT22;3458;53.678;14.080;2023-04-24T08:51:07;15.20;99.90
6841;DHT22;3458;53.678;14.080;2023-04-24T08:53:33;15.30;99.90
6841;DHT22;3458;53.678;14.080;2023-04-24T08:56:01;15.30;99.90
6841;DHT22;3458;53.678;14.080;2023-04-24T08:58:27;15.30;99.90
6841;DHT22;3458;53.678;14.080;2023-04-24T09:00:57;15.40;99.90
6841;DHT22;3458;53.678;14.080;2023-04-24T09:03:23;15.40;99.90
6841;DHT22;3458;53.678;14.080;2023-04-24T09:05:49;15.30;99.90
6841;DHT22;3458;53.678;14.080;2023-04-24T09:08:18;15.40;99.90
6841;DHT22;3458;53.678;14.080;2023-04-24T09:10:43;15.60;99.90
6841;DHT22;3458;53.678;14.080;2023-04-24T09:13:09;15.80;99.90
6841;DHT22;3458;53.678;14.080;2023-04-24T09:15:36;16.00;99.90
6841;DHT22;3458;53.678;14.080;2023-04-24T09:18:02;16.10;99.90
6841;DHT22;3458;53.678;14.080;2023-04-24T09:20:28;16.10;99.90
6841;DHT22;3458;53.678;14.080;2023-04-24T09:22:54;16.20;99.90
6841;DHT22;3458;53.678;14.080;2023-04-24T09:25:21;16.20;99.90
6841;DHT22;3458;53.678;14.080;2023-04-24T09:27:47;16.30;99.90
6841;DHT22;3458;53.678;14.080;2023-04-24T09:30:13;16.40;99.90
6841;DHT22;3458;53.678;14.080;2023-04-24T09:32:39;16.40;99.90
6841;DHT22;3458;53.678;14.080;2023-04-24T09:37:39;16.50;99.90
6841;DHT22;3458;53.678;14.080;2023-04-24T09:40:16;16.50;99.90
6841;DHT22;3458;53.678;14.080;2023-04-24T09:43:00;16.50;99.90
6841;DHT22;3458;53.678;14.080;2023-04-24T09:45:29;16.50;99.90
6841;DHT22;3458;53.678;14.080;2023-04-24T09:48:00;16.70;99.90
6841;DHT22;3458;53.678;14.080;2023-04-24T09:50:25;16.90;99.90
6841;DHT22;3458;53.678;14.080;2023-04-24T09:52:58;17.10;99.90
6841;DHT22;3458;53.678;14.080;2023-04-24T09:55:25;17.10;99.90
6841;DHT22;3458;53.678;14.080;2023-04-24T09:57:58;17.00;99.90
6841;DHT22;3458;53.678;14.080;2023-04-24T10:03:03;17.00;99.90
6841;DHT22;3458;53.678;14.080;2023-04-24T10:05:31;17.10;99.90
6841;DHT22;3458;53.678;14.080;2023-04-24T10:08:08;17.20;99.90
6841;DHT22;3458;53.678;14.080;2023-04-24T10:10:44;17.30;99.90
6841;DHT22;3458;53.678;14.080;2023-04-24T10:13:11;17.50;99.90
6841;DHT22;3458;53.678;14.080;2023-04-24T10:15:38;17.60;99.90
6841;DHT22;3458;53.678;14.080;2023-04-24T10:18:08;17.50;99.90
6841;DHT22;3458;53.678;14.080;2023-04-24T10:20:35;17.40;99.90
6841;DHT22;3458;53.678;14.080;2023-04-24T10:23:02;17.50;99.90
6841;DHT22;3458;53.678;14.080;2023-04-24T10:25:29;17.50;99.90
6841;DHT22;3458;53.678;14.080;2023-04-24T10:27:56;17.50;99.90
6841;DHT22;3458;53.678;14.080;2023-04-24T10:30:26;17.60;99.90
6841;DHT22;3458;53.678;14.080;2023-04-24T10:32:52;17.90;98.80
6841;DHT22;3458;53.678;14.080;2023-04-24T10:35:18;18.20;98.20
6841;DHT22;3458;53.678;14.080;2023-04-24T10:38:08;18.20;96.80
6841;DHT22;3458;53.678;14.080;2023-04-24T10:40:35;18.30;94.80
6841;DHT22;3458;53.678;14.080;2023-04-24T10:43:08;18.30;94.90
6841;DHT22;3458;53.678;14.080;2023-04-24T10:45:36;18.30;93.80
6841;DHT22;3458;53.678;14.080;2023-04-24T10:48:04;18.20;93.70
6841;DHT22;3458;53.678;14.080;2023-04-24T10:50:45;18.10;93.80
6841;DHT22;3458;53.678;14.080;2023-04-24T10:53:19;18.00;94.40
6841;DHT22;3458;53.678;14.080;2023-04-24T10:55:51;17.90;94.70
6841;DHT22;3458;53.678;14.080;2023-04-24T10:58:21;17.90;95.90
6841;DHT22;3458;53.678;14.080;2023-04-24T11:00:56;17.80;96.00
6841;DHT22;3458;53.678;14.080;2023-04-24T11:05:57;17.60;95.20
6841;DHT22;3458;53.678;14.080;2023-04-24T11:08:28;17.50;95.60
6841;DHT22;3458;53.678;14.080;2023-04-24T11:11:13;17.40;95.60
6841;DHT22;3458;53.678;14.080;2023-04-24T11:16:28;17.30;96.90
6841;DHT22;3458;53.678;14.080;2023-04-24T11:21:44;17.30;98.20
6841;DHT22;3458;53.678;14.080;2023-04-24T11:24:38;17.30;98.00
6841;DHT22;3458;53.678;14.080;2023-04-24T11:29:43;17.50;96.90
6841;DHT22;3458;53.678;14.080;2023-04-24T11:32:39;17.60;97.10
6841;DHT22;3458;53.678;14.080;2023-04-24T11:35:12;17.70;97.00
6841;DHT22;3458;53.678;14.080;2023-04-24T11:37:43;17.80;94.40
6841;DHT22;3458;53.678;14.080;2023-04-24T11:40:12;17.80;92.90
6841;DHT22;3458;53.678;14.080;2023-04-24T11:42:43;17.80;91.70
6841;DHT22;3458;53.678;14.080;2023-04-24T11:45:12;17.80;91.60
6841;DHT22;3458;53.678;14.080;2023-04-24T11:47:38;17.90;91.70
6841;DHT22;3458;53.678;14.080;2023-04-24T11:50:07;18.00;91.80
6841;DHT22;3458;53.678;14.080;2023-04-24T11:52:36;18.20;91.40
6841;DHT22;3458;53.678;14.080;2023-04-24T11:55:02;18.30;91.30
6841;DHT22;3458;53.678;14.080;2023-04-24T11:57:29;18.40;91.10
6841;DHT22;3458;53.678;14.080;2023-04-24T11:59:59;18.30;90.90
6841;DHT22;3458;53.678;14.080;2023-04-24T12:02:25;18.30;91.90
6841;DHT22;3458;53.678;14.080;2023-04-24T12:04:54;18.30;91.00
6841;DHT22;3458;53.678;14.080;2023-04-24T12:07:22;18.30;90.60
6841;DHT22;3458;53.678;14.080;2023-04-24T12:09:56;18.40;90.90
6841;DHT22;3458;53.678;14.080;2023-04-24T12:12:24;18.40;90.80
6841;DHT22;3458;53.678;14.080;2023-04-24T12:14:54;18.50;90.80
6841;DHT22;3458;53.678;14.080;2023-04-24T12:17:31;18.90;91.30
6841;DHT22;3458;53.678;14.080;2023-04-24T12:20:05;19.30;90.70
6841;DHT22;3458;53.678;14.080;2023-04-24T12:22:44;19.60;90.20
6841;DHT22;3458;53.678;14.080;2023-04-24T12:25:16;20.00;90.10
6841;DHT22;3458;53.678;14.080;2023-04-24T12:27:50;20.70;90.50
6841;DHT22;3458;53.678;14.080;2023-04-24T12:30:17;21.50;87.70
6841;DHT22;3458;53.678;14.080;2023-04-24T12:32:47;21.80;83.40
6841;DHT22;3458;53.678;14.080;2023-04-24T12:35:21;21.90;82.30
6841;DHT22;3458;53.678;14.080;2023-04-24T12:37:46;21.70;80.90
6841;DHT22;3458;53.678;14.080;2023-04-24T12:40:13;22.00;81.10
6841;DHT22;3458;53.678;14.080;2023-04-24T12:42:43;22.90;79.90
6841;DHT22;3458;53.678;14.080;2023-04-24T12:45:09;23.40;75.80
6841;DHT22;3458;53.678;14.080;2023-04-24T12:47:37;23.70;72.50
6841;DHT22;3458;53.678;14.080;2023-04-24T12:50:03;24.00;72.20
6841;DHT22;3458;53.678;14.080;2023-04-24T12:52:29;24.60;70.50
6841;DHT22;3458;53.678;14.080;2023-04-24T12:54:57;24.70;65.70
6841;DHT22;3458;53.678;14.080;2023-04-24T12:57:23;24.60;64.90
6841;DHT22;3458;53.678;14.080;2023-04-24T12:59:49;25.40;64.20
6841;DHT22;3458;53.678;14.080;2023-04-24T13:02:16;25.70;59.60
6841;DHT22;3458;53.678;14.080;2023-04-24T13:04:45;25.70;57.50
6841;DHT22;3458;53.678;14.080;2023-04-24T13:07:12;24.90;55.30
6841;DHT22;3458;53.678;14.080;2023-04-24T13:09:38;24.40;54.90
6841;DHT22;3458;53.678;14.080;2023-04-24T13:12:03;24.20;56.40
6841;DHT22;3458;53.678;14.080;2023-04-24T13:14:31;24.80;54.30
6841;DHT22;3458;53.678;14.080;2023-04-24T13:16:56;24.60;54.20
6841;DHT22;3458;53.678;14.080;2023-04-24T13:19:24;24.00;55.30
6841;DHT22;3458;53.678;14.080;2023-04-24T15:28:27;23.10;55.80
6841;DHT22;3458;53.678;14.080;2023-04-24T15:30:52;15.20;98.30
6841;DHT22;3458;53.678;14.080;2023-04-24T15:33:18;15.00;99.10
6841;DHT22;3458;53.678;14.080;2023-04-24T15:35:43;15.10;99.90
6841;DHT22;3458;53.678;14.080;2023-04-24T15:38:08;15.10;99.90
6841;DHT22;3458;53.678;14.080;2023-04-24T15:40:34;15.20;99.90
6841;DHT22;3458;53.678;14.080;2023-04-24T15:43:00;15.30;99.90
6841;DHT22;3458;53.678;14.080;2023-04-24T15:45:25;15.30;99.90
6841;DHT22;3458;53.678;14.080;2023-04-24T15:47:51;15.40;99.90
6841;DHT22;3458;53.678;14.080;2023-04-24T15:50:16;15.30;99.90
6841;DHT22;3458;53.678;14.080;2023-04-24T15:52:43;15.30;99.90
6841;DHT22;3458;53.678;14.080;2023-04-24T15:55:09;15.30;99.90
6841;DHT22;3458;53.678;14.080;2023-04-24T15:57:35;15.30;99.90
6841;DHT22;3458;53.678;14.080;2023-04-24T16:00:02;15.30;99.90
6841;DHT22;3458;53.678;14.080;2023-04-24T16:02:29;15.30;99.90
6841;DHT22;3458;53.678;14.080;2023-04-24T16:04:54;15.50;99.90
6841;DHT22;3458;53.678;14.080;2023-04-24T16:07:20;15.70;99.90
6841;DHT22;3458;53.678;14.080;2023-04-24T16:09:45;15.70;99.90
6841;DHT22;3458;53.678;14.080;2023-04-24T16:12:11;15.80;99.90
6841;DHT22;3458;53.678;14.080;2023-04-24T16:19:29;15.80;99.90
6841;DHT22;3458;53.678;14.080;2023-04-24T16:21:55;16.10;99.90
6841;DHT22;3458;53.678;14.080;2023-04-24T16:24:22;16.30;99.90
6841;DHT22;3458;53.678;14.080;2023-04-24T16:26:49;16.30;99.90
6841;DHT22;3458;53.678;14.080;2023-04-24T16:29:15;16.50;99.90
6841;DHT22;3458;53.678;14.080;2023-04-24T16:31:40;16.50;99.90
6841;DHT22;3458;53.678;14.080;2023-04-24T20:23:21;16.40;99.90
6841;DHT22;3458;53.678;14.080;2023-04-24T20:25:47;12.70;99.90
6841;DHT22;3458;53.678;14.080;2023-04-24T20:28:12;12.60;99.90
6841;DHT22;3458;53.678;14.080;2023-04-24T20:40:24;12.60;99.90
6841;DHT22;3458;53.678;14.080;2023-04-24T20:42:49;12.00;99.90
6841;DHT22;3458;53.678;14.080;2023-04-24T20:45:15;11.90;99.90
6841;DHT22;3458;53.678;14.080;2023-04-24T20:47:42;11.80;99.90
6841;DHT22;3458;53.678;14.080;2023-04-24T20:50:08;11.60;99.90
6841;DHT22;3458;53.678;14.080;2023-04-24T20:52:34;11.50;99.90
6841;DHT22;3458;53.678;14.080;2023-04-24T20:54:59;11.50;99.90
6841;DHT22;3458;53.678;14.080;2023-04-24T20:57:25;11.60;99.90
6841;DHT22;3458;53.678;14.080;2023-04-24T20:59:50;11.60;99.90
6841;DHT22;3458;53.678;14.080;2023-04-24T21:02:16;11.60;99.90
6841;DHT22;3458;53.678;14.080;2023-04-24T21:04:41;11.40;99.90
6841;DHT22;3458;53.678;14.080;2023-04-24T21:07:07;11.50;99.90
6841;DHT22;3458;53.678;14.080;2023-04-24T21:09:34;11.50;99.90
6841;DHT22;3458;53.678;14.080;2023-04-24T21:11:59;11.50;99.90
6841;DHT22;3458;53.678;14.080;2023-04-24T21:14:27;11.60;99.90
6841;DHT22;3458;53.678;14.080;2023-04-24T21:16:52;11.60;99.90
6841;DHT22;3458;53.678;14.080;2023-04-24T21:19:20;11.60;99.90
6841;DHT22;3458;53.678;14.080;2023-04-24T21:21:46;11.60;99.90
6841;DHT22;3458;53.678;14.080;2023-04-24T21:24:11;11.70;99.90
6841;DHT22;3458;53.678;14.080;2023-04-24T21:26:37;11.70;99.90
6841;DHT22;3458;53.678;14.080;2023-04-24T21:29:02;11.60;99.90
6841;DHT22;3458;53.678;14.080;2023-04-24T21:31:28;11.50;99.90
6841;DHT22;3458;53.678;14.080;2023-04-24T21:33:53;11.50;99.90
6841;DHT22;3458;53.678;14.080;2023-04-24T21:36:18;11.50;99.90
6841;DHT22;3458;53.678;14.080;2023-04-24T22:54:13;11.30;99.90
6841;DHT22;3458;53.678;14.080;2023-04-24T22:56:38;11.30;99.90
6841;DHT22;3458;53.678;14.080;2023-04-24T22:59:04;11.20;99.90
6841;DHT22;3458;53.678;14.080;2023-04-24T23:01:30;11.20;99.90
6841;DHT22;3458;53.678;14.080;2023-04-24T23:03:56;11.20;99.90
6841;DHT22;3458;53.678;14.080;2023-04-24T23:06:22;11.10;99.90
6841;DHT22;3458;53.678;14.080;2023-04-24T23:08:47;11.10;99.90
6841;DHT22;3458;53.678;14.080;2023-04-24T23:11:13;11.00;99.90
6841;DHT22;3458;53.678;14.080;2023-04-24T23:13:38;11.00;99.90
6841;DHT22;3458;53.678;14.080;2023-04-24T23:16:07;11.00;99.90
6841;DHT22;3458;53.678;14.080;2023-04-24T23:18:33;11.10;99.90
6841;DHT22;3458;53.678;14.080;2023-04-24T23:20:58;11.20;99.90
6841;DHT22;3458;53.678;14.080;2023-04-24T23:23:26;11.10;99.90